Time;durP1;ratioP1;P1;durP2;ratioP2;P2;SDS_P1;SDS_P2;PMS_P1;PMS_P2;Temp;Humidity;BMP_temperature;BMP_pressure;BME280_temperature;BME280_humidity;BME280_pressure;Samples;Min_cycle;Max_cycle;Signal;HPM_P1;HPM_P2
2022/06/14 00:01:12;;;;;;;14.00;9.93;;;;;;;;;;5087964;28;20501;-75
2022/06/14 00:03:40;;;;;;;17.97;9.37;;;;;;;;;;5087386;28;20051;-75
2022/06/14 00:06:11;;;;;;;12.97;9.20;;;;;;;;;;5087718;28;20403;-75
2022/06/14 00:08:38;;;;;;;14.70;8.23;;;;;;;;;;5087663;28;20039;-74
2022/06/14 00:11:09;;;;;;;16.47;9.17;;;;;;;;;;5091815;28;20364;-74
2022/06/14 00:13:36;;;;;;;15.90;8.47;;;;;;;;;;5092544;28;20028;-74
2022/06/14 00:16:03;;;;;;;14.17;8.53;;;;;;;;;;5092745;28;20032;-74
2022/06/14 00:18:30;;;;;;;16.83;9.43;;;;;;;;;;5092572;28;20036;-75
2022/06/14 00:20:57;;;;;;;18.07;9.70;;;;;;;;;;5096578;28;20038;-77
2022/06/14 00:23:24;;;;;;;13.67;7.10;;;;;;;;;;5089578;28;20066;-75
2022/06/14 00:25:55;;;;;;;15.00;7.13;;;;;;;;;;5087684;28;20074;-75
2022/06/14 00:28:23;;;;;;;12.30;6.77;;;;;;;;;;5086645;28;20030;-76
2022/06/14 00:30:51;;;;;;;12.93;8.63;;;;;;;;;;5087504;28;20108;-76
2022/06/14 00:33:18;;;;;;;15.57;8.53;;;;;;;;;;5090763;28;20020;-76
2022/06/14 00:35:45;;;;;;;12.50;8.67;;;;;;;;;;5092688;28;20154;-76
2022/06/14 00:38:12;;;;;;;14.07;9.20;;;;;;;;;;5092373;28;20039;-75
2022/06/14 00:40:39;;;;;;;14.93;8.63;;;;;;;;;;5092318;28;20362;-76
2022/06/14 00:43:17;;;;;;;16.90;9.37;;;;;;;;;;5092122;28;20356;-76
2022/06/14 00:45:44;;;;;;;15.80;9.10;;;;;;;;;;5087426;28;20028;-76
2022/06/14 00:48:19;;;;;;;13.30;6.73;;;;;;;;;;5087204;28;20031;-76
2022/06/14 00:50:49;;;;;;;9.63;4.70;;;;;;;;;;5087418;28;20024;-76
2022/06/14 00:53:18;;;;;;;8.37;4.37;;;;;;;;;;5087122;28;20031;-76
2022/06/14 00:55:53;;;;;;;10.40;4.33;;;;;;;;;;5071738;28;20495;-76
2022/06/14 00:58:23;;;;;;;9.20;4.10;;;;;;;;;;5090662;28;20073;-77
2022/06/14 01:00:59;;;;;;;8.87;3.70;;;;;;;;;;5092244;28;20043;-76
2022/06/14 01:03:27;;;;;;;14.13;5.37;;;;;;;;;;5092258;28;20471;-77
2022/06/14 01:06:06;;;;;;;11.63;5.50;;;;;;;;;;5092157;28;20055;-76
2022/06/14 01:08:53;;;;;;;9.83;4.40;;;;;;;;;;5086814;28;20520;-76
2022/06/14 01:11:32;;;;;;;21.57;5.67;;;;;;;;;;5086597;28;20498;-77
2022/06/14 01:14:00;;;;;;;8.67;5.00;;;;;;;;;;5087112;28;20042;-76
2022/06/14 01:16:27;;;;;;;8.63;5.30;;;;;;;;;;5087364;28;20031;-76
2022/06/14 01:18:54;;;;;;;11.27;6.07;;;;;;;;;;5091464;28;20360;-76
2022/06/14 01:21:20;;;;;;;12.67;5.63;;;;;;;;;;5092227;28;20028;-76
2022/06/14 01:23:47;;;;;;;15.93;5.00;;;;;;;;;;5092089;28;20046;-76
2022/06/14 01:26:17;;;;;;;13.67;6.00;;;;;;;;;;5091796;28;20024;-75
2022/06/14 01:28:47;;;;;;;7.57;4.70;;;;;;;;;;5091510;28;20103;-76
2022/06/14 01:31:15;;;;;;;9.23;4.67;;;;;;;;;;5086640;28;20020;-76
2022/06/14 01:33:44;;;;;;;7.10;4.03;;;;;;;;;;5086551;28;20021;-76
2022/06/14 01:36:15;;;;;;;8.73;4.20;;;;;;;;;;5086532;28;20025;-75
2022/06/14 01:38:45;;;;;;;9.57;3.90;;;;;;;;;;5086600;28;20034;-76
2022/06/14 01:41:14;;;;;;;9.67;4.47;;;;;;;;;;5093778;28;20482;-75
2022/06/14 01:43:47;;;;;;;7.50;3.97;;;;;;;;;;5095333;28;20032;-76
2022/06/14 01:46:20;;;;;;;6.93;4.17;;;;;;;;;;5095397;28;20020;-76
2022/06/14 01:51:59;;;;;;;8.33;4.70;;;;;;;;;;5093350;28;20031;-76
2022/06/14 01:54:32;;;;;;;11.97;5.10;;;;;;;;;;5082131;28;20036;-75
2022/06/14 01:57:10;;;;;;;15.03;5.63;;;;;;;;;;5070166;28;20032;-75
2022/06/14 01:59:46;;;;;;;9.97;5.67;;;;;;;;;;5070163;28;20025;-75
2022/06/14 02:02:20;;;;;;;7.63;5.10;;;;;;;;;;5083819;28;20028;-75
2022/06/14 02:04:53;;;;;;;11.52;5.43;;;;;;;;;;5095066;28;20372;-75
2022/06/14 02:07:24;;;;;;;8.40;4.30;;;;;;;;;;5095351;28;20039;-75
2022/06/14 02:10:10;;;;;;;11.50;4.80;;;;;;;;;;5095105;28;20044;-75
2022/06/14 02:12:43;;;;;;;11.97;4.47;;;;;;;;;;5094383;28;20051;-75
2022/06/14 02:15:14;;;;;;;7.93;3.80;;;;;;;;;;5090882;28;20028;-75
2022/06/14 02:17:44;;;;;;;10.80;4.63;;;;;;;;;;5089851;28;20031;-75
2022/06/14 02:20:17;;;;;;;13.70;5.03;;;;;;;;;;5089663;28;20121;-74
2022/06/14 02:22:47;;;;;;;12.20;5.23;;;;;;;;;;5089451;28;20035;-75
2022/06/14 02:25:14;;;;;;;12.53;4.53;;;;;;;;;;5093138;28;20360;-75
2022/06/14 02:27:59;;;;;;;13.63;4.33;;;;;;;;;;5094811;28;20012;-76
2022/06/14 02:30:46;;;;;;;13.90;4.82;;;;;;;;;;5095304;28;20016;-75
2022/06/14 02:33:23;;;;;;;16.07;4.83;;;;;;;;;;5094438;28;20399;-76
2022/06/14 02:36:07;;;;;;;11.77;4.43;;;;;;;;;;5094845;28;20028;-75
2022/06/14 02:38:34;;;;;;;15.17;4.40;;;;;;;;;;5089962;28;20032;-76
2022/06/14 02:41:09;;;;;;;16.73;4.90;;;;;;;;;;5089703;28;20016;-75
2022/06/14 02:43:41;;;;;;;9.87;4.60;;;;;;;;;;5089665;28;20081;-76
2022/06/14 02:46:13;;;;;;;10.60;4.97;;;;;;;;;;5089940;28;20118;-76
2022/06/14 02:48:47;;;;;;;10.80;4.53;;;;;;;;;;5094624;28;20047;-76
2022/06/14 02:51:26;;;;;;;15.35;4.93;;;;;;;;;;5093959;28;20016;-76
2022/06/14 02:53:55;;;;;;;10.57;5.40;;;;;;;;;;5090735;28;20016;-76
2022/06/14 02:56:31;;;;;;;21.53;5.50;;;;;;;;;;5093197;28;20021;-76
2022/06/14 02:59:06;;;;;;;10.07;5.20;;;;;;;;;;5091777;28;20028;-76
2022/06/14 03:01:45;;;;;;;12.87;5.90;;;;;;;;;;5089144;28;20055;-76
2022/06/14 03:04:15;;;;;;;11.07;5.07;;;;;;;;;;5088426;28;20119;-76
2022/06/14 03:06:54;;;;;;;12.60;4.87;;;;;;;;;;5089143;28;20475;-76
2022/06/14 03:09:26;;;;;;;11.73;5.23;;;;;;;;;;5091562;28;20021;-77
2022/06/14 03:11:52;;;;;;;12.43;4.87;;;;;;;;;;5094049;28;20024;-77
2022/06/14 03:14:26;;;;;;;12.23;5.00;;;;;;;;;;5093539;28;20020;-77
2022/06/14 03:16:59;;;;;;;14.27;5.55;;;;;;;;;;5094179;28;20429;-77
2022/06/14 03:19:39;;;;;;;17.27;5.90;;;;;;;;;;5093639;28;20494;-76
2022/06/14 03:22:18;;;;;;;10.97;4.00;;;;;;;;;;5090103;28;20505;-77
2022/06/14 03:24:45;;;;;;;14.67;6.03;;;;;;;;;;5088941;28;20028;-76
2022/06/14 03:27:32;;;;;;;14.33;5.17;;;;;;;;;;5088967;28;20042;-77
2022/06/14 03:30:03;;;;;;;15.67;5.53;;;;;;;;;;5068305;28;20025;-77
2022/06/14 03:32:33;;;;;;;13.20;5.60;;;;;;;;;;5072496;28;20366;-76
2022/06/14 03:35:12;;;;;;;11.37;5.97;;;;;;;;;;5073480;28;20036;-77
2022/06/14 03:37:39;;;;;;;12.50;4.77;;;;;;;;;;5073393;28;20020;-77
2022/06/14 03:40:08;;;;;;;12.70;6.40;;;;;;;;;;5073298;28;20052;-77
2022/06/14 03:42:35;;;;;;;14.17;6.23;;;;;;;;;;5073393;28;20024;-77
2022/06/14 03:45:03;;;;;;;12.07;4.67;;;;;;;;;;5067995;28;20044;-77
2022/06/14 03:47:30;;;;;;;17.97;5.77;;;;;;;;;;5068003;28;20055;-77
2022/06/14 03:50:00;;;;;;;17.03;5.80;;;;;;;;;;5067939;28;20048;-77
2022/06/14 03:52:45;;;;;;;19.50;6.60;;;;;;;;;;5069413;28;20081;-77
2022/06/14 03:55:33;;;;;;;15.30;4.53;;;;;;;;;;5078519;28;20029;-77
2022/06/14 03:58:18;;;;;;;12.03;4.90;;;;;;;;;;5072885;28;20392;-77
2022/06/14 04:00:51;;;;;;;11.30;4.60;;;;;;;;;;5078564;28;20028;-77
2022/06/14 04:03:20;;;;;;;10.37;4.30;;;;;;;;;;5092130;28;20066;-77
2022/06/14 04:05:53;;;;;;;9.60;4.63;;;;;;;;;;5090233;28;20035;-76
2022/06/14 04:08:29;;;;;;;13.93;5.43;;;;;;;;;;5087678;28;20477;-77
2022/06/14 04:11:13;;;;;;;9.97;5.17;;;;;;;;;;5087758;28;20094;-76
2022/06/14 04:13:46;;;;;;;9.60;3.93;;;;;;;;;;5087601;28;20016;-77
2022/06/14 04:16:19;;;;;;;7.00;3.77;;;;;;;;;;5089969;28;20560;-77
2022/06/14 04:18:51;;;;;;;13.77;4.87;;;;;;;;;;5092865;28;20494;-77
2022/06/14 04:21:24;;;;;;;13.03;5.70;;;;;;;;;;5092617;28;20039;-77
2022/06/14 04:23:57;;;;;;;15.03;6.93;;;;;;;;;;5093014;28;20383;-77
2022/06/14 04:26:28;;;;;;;11.23;5.33;;;;;;;;;;5092729;28;20028;-77
2022/06/14 04:29:13;;;;;;;12.17;5.77;;;;;;;;;;5089504;28;20024;-77
2022/06/14 04:31:45;;;;;;;11.80;5.65;;;;;;;;;;5087601;28;20387;-77
2022/06/14 04:34:29;;;;;;;9.23;4.70;;;;;;;;;;5086963;28;20495;-77
2022/06/14 04:37:22;;;;;;;11.60;5.10;;;;;;;;;;5087417;28;20039;-77
2022/06/14 04:39:59;;;;;;;12.80;4.40;;;;;;;;;;5054043;28;20089;-76
2022/06/14 04:42:39;;;;;;;14.17;5.63;;;;;;;;;;5092261;28;20370;-77
2022/06/14 04:45:12;;;;;;;11.33;5.60;;;;;;;;;;5092445;28;20024;-77
2022/06/14 04:47:39;;;;;;;19.10;5.50;;;;;;;;;;5092205;28;20023;-77
2022/06/14 04:50:09;;;;;;;10.77;5.07;;;;;;;;;;5091652;28;20471;-77
2022/06/14 04:52:38;;;;;;;10.93;5.00;;;;;;;;;;5087077;28;20489;-77
2022/06/14 04:55:11;;;;;;;11.03;5.00;;;;;;;;;;5073845;28;20021;-77
2022/06/14 04:57:43;;;;;;;12.57;5.13;;;;;;;;;;5074300;28;20035;-77
2022/06/14 05:00:20;;;;;;;13.27;5.07;;;;;;;;;;5088039;28;20032;-77
2022/06/14 05:02:50;;;;;;;10.73;4.53;;;;;;;;;;5091629;28;20429;-75
2022/06/14 05:05:25;;;;;;;10.60;4.83;;;;;;;;;;5092463;28;20548;-75
2022/06/14 05:08:06;;;;;;;9.87;5.30;;;;;;;;;;5092298;28;20032;-75
2022/06/14 05:10:36;;;;;;;12.87;5.87;;;;;;;;;;5092114;28;20031;-75
2022/06/14 05:13:11;;;;;;;9.30;4.40;;;;;;;;;;5090211;28;20388;-75
2022/06/14 05:15:46;;;;;;;14.07;5.40;;;;;;;;;;5089990;28;20055;-76
2022/06/14 05:18:13;;;;;;;;;;;;;;;;;;5091471;28;20020;-73
2022/06/14 05:20:46;;;;;;;16.40;4.57;;;;;;;;;;5091204;28;20351;-74
2022/06/14 05:23:19;;;;;;;10.03;4.60;;;;;;;;;;5093118;28;20028;-69
2022/06/14 05:25:48;;;;;;;9.97;5.10;;;;;;;;;;5095535;28;20103;-69
2022/06/14 05:28:17;;;;;;;12.83;5.53;;;;;;;;;;5096104;28;20092;-69
2022/06/14 05:30:47;;;;;;;11.13;4.73;;;;;;;;;;5095784;28;20047;-68
2022/06/14 05:33:22;;;;;;;16.07;5.80;;;;;;;;;;5095895;28;20059;-69
2022/06/14 05:36:00;;;;;;;10.50;4.40;;;;;;;;;;5092834;28;20032;-68
2022/06/14 05:38:37;;;;;;;11.03;4.33;;;;;;;;;;5090785;28;20051;-68
2022/06/14 05:41:22;;;;;;;11.63;4.57;;;;;;;;;;5090659;28;20038;-76
2022/06/14 05:43:51;;;;;;;7.47;4.00;;;;;;;;;;5084627;28;20035;-73
2022/06/14 05:46:21;;;;;;;7.10;4.10;;;;;;;;;;5093742;28;20023;-73
2022/06/14 05:48:52;;;;;;;8.77;4.07;;;;;;;;;;5095474;28;20028;-72
2022/06/14 05:51:21;;;;;;;7.73;3.93;;;;;;;;;;5095439;28;20020;-72
2022/06/14 05:53:50;;;;;;;8.50;3.37;;;;;;;;;;5095465;28;20023;-72
2022/06/14 05:56:21;;;;;;;11.40;3.47;;;;;;;;;;5095496;28;20483;-72
2022/06/14 05:58:58;;;;;;;7.50;3.50;;;;;;;;;;5090369;28;20169;-72
2022/06/14 06:01:28;;;;;;;7.87;4.03;;;;;;;;;;5089975;28;20382;-72
2022/06/14 06:03:59;;;;;;;7.93;3.33;;;;;;;;;;5089918;28;20542;-72
2022/06/14 06:06:29;;;;;;;10.50;3.57;;;;;;;;;;5089647;28;20340;-71
2022/06/14 06:08:59;;;;;;;7.80;3.00;;;;;;;;;;5093937;28;20034;-72
2022/06/14 06:11:36;;;;;;;7.93;3.60;;;;;;;;;;5094951;28;20020;-72
2022/06/14 06:14:03;;;;;;;7.07;3.57;;;;;;;;;;5095005;28;20073;-72
2022/06/14 06:17:02;;;;;;;9.67;3.17;;;;;;;;;;5095099;28;20378;-72
2022/06/14 06:19:32;;;;;;;9.03;3.63;;;;;;;;;;5093861;28;20024;-71
2022/06/14 06:22:18;;;;;;;7.00;3.30;;;;;;;;;;5089234;28;20137;-72
2022/06/14 06:24:51;;;;;;;16.07;4.43;;;;;;;;;;5089524;28;20035;-72
2022/06/14 06:27:19;;;;;;;9.90;3.43;;;;;;;;;;5088193;28;20054;-72
2022/06/14 06:29:55;;;;;;;7.57;4.07;;;;;;;;;;5090571;28;20089;-71
2022/06/14 06:32:23;;;;;;;10.23;3.70;;;;;;;;;;5094293;28;20368;-72
2022/06/14 06:34:51;;;;;;;6.90;3.50;;;;;;;;;;5094378;28;20016;-72
2022/06/14 06:37:21;;;;;;;6.37;3.23;;;;;;;;;;5094497;28;20022;-72
2022/06/14 06:39:53;;;;;;;5.83;2.67;;;;;;;;;;5093952;28;20379;-72
2022/06/14 06:42:24;;;;;;;8.80;3.70;;;;;;;;;;5092334;28;20032;-71
2022/06/14 06:44:54;;;;;;;13.00;4.30;;;;;;;;;;5089030;28;20657;-72
2022/06/14 06:47:31;;;;;;;7.30;3.67;;;;;;;;;;5088965;28;20034;-72
2022/06/14 06:50:15;;;;;;;7.73;3.63;;;;;;;;;;5088791;28;20077;-72
2022/06/14 06:52:48;;;;;;;7.63;4.22;;;;;;;;;;5091558;28;20069;-71
2022/06/14 06:55:18;;;;;;;8.80;4.00;;;;;;;;;;5093793;28;20026;-72
2022/06/14 06:57:47;;;;;;;6.53;3.30;;;;;;;;;;5094247;28;20475;-72
2022/06/14 07:00:15;;;;;;;8.50;3.87;;;;;;;;;;5093697;28;20360;-72
2022/06/14 07:02:45;;;;;;;11.40;4.07;;;;;;;;;;5094122;28;20390;-72
2022/06/14 07:05:17;;;;;;;9.97;3.33;;;;;;;;;;5090815;28;20030;-72
2022/06/14 07:07:47;;;;;;;7.37;4.03;;;;;;;;;;5088672;28;20107;-71
2022/06/14 07:10:17;;;;;;;8.67;3.40;;;;;;;;;;5088520;28;20022;-71
2022/06/14 07:12:46;;;;;;;10.50;4.03;;;;;;;;;;5088266;28;20023;-71
2022/06/14 07:15:16;;;;;;;9.00;3.83;;;;;;;;;;5091623;28;20016;-72
2022/06/14 07:17:45;;;;;;;8.07;3.50;;;;;;;;;;5093824;28;20035;-71
2022/06/14 07:20:15;;;;;;;9.23;3.90;;;;;;;;;;5093509;28;20020;-71
2022/06/14 07:22:45;;;;;;;9.50;3.50;;;;;;;;;;5093542;28;20031;-71
2022/06/14 07:25:17;;;;;;;12.43;4.13;;;;;;;;;;5093365;28;20040;-71
2022/06/14 07:27:48;;;;;;;8.73;4.13;;;;;;;;;;5089630;28;20020;-71
2022/06/14 07:30:21;;;;;;;7.23;3.83;;;;;;;;;;5088191;28;20049;-71
2022/06/14 07:32:50;;;;;;;10.43;4.83;;;;;;;;;;5088073;28;20088;-71
2022/06/14 07:35:17;;;;;;;6.40;3.27;;;;;;;;;;5087896;28;20031;-71
2022/06/14 07:37:58;;;;;;;8.63;3.53;;;;;;;;;;5091702;28;20043;-72
2022/06/14 07:40:42;;;;;;;9.67;3.90;;;;;;;;;;5093399;28;20024;-71
2022/06/14 07:43:16;;;;;;;7.70;3.83;;;;;;;;;;5093436;28;20048;-71
2022/06/14 07:45:44;;;;;;;9.80;3.45;;;;;;;;;;5093112;28;20020;-72
2022/06/14 07:48:17;;;;;;;7.90;4.20;;;;;;;;;;5092725;28;20024;-71
2022/06/14 07:50:48;;;;;;;8.23;3.80;;;;;;;;;;5087840;28;20021;-71
2022/06/14 07:53:21;;;;;;;9.87;4.00;;;;;;;;;;5087702;28;20099;-71
2022/06/14 07:55:50;;;;;;;11.93;3.47;;;;;;;;;;5087970;28;20035;-71
2022/06/14 07:58:23;;;;;;;14.57;3.97;;;;;;;;;;5087438;28;20103;-71
2022/06/14 08:01:09;;;;;;;12.43;3.43;;;;;;;;;;5092957;28;20016;-71
2022/06/14 08:03:54;;;;;;;9.70;3.57;;;;;;;;;;5092888;28;20036;-71
2022/06/14 08:06:24;;;;;;;6.50;3.00;;;;;;;;;;5092502;28;20051;-71
2022/06/14 08:08:59;;;;;;;8.63;3.20;;;;;;;;;;5092835;28;20535;-71
2022/06/14 08:11:41;;;;;;;6.05;3.03;;;;;;;;;;5090478;28;20099;-71
2022/06/14 08:14:10;;;;;;;7.10;2.33;;;;;;;;;;5087158;28;20027;-71
2022/06/14 08:16:37;;;;;;;4.30;2.40;;;;;;;;;;5087438;28;20073;-71
2022/06/14 08:19:07;;;;;;;8.37;2.60;;;;;;;;;;5087392;28;20071;-71
2022/06/14 08:21:43;;;;;;;6.40;2.33;;;;;;;;;;5089386;28;20543;-71
2022/06/14 08:24:16;;;;;;;4.10;2.40;;;;;;;;;;5092501;28;20104;-71
2022/06/14 08:26:50;;;;;;;4.80;2.30;;;;;;;;;;5092272;28;20490;-71
2022/06/14 08:29:20;;;;;;;6.30;2.77;;;;;;;;;;5092524;28;20020;-71
2022/06/14 08:31:50;;;;;;;8.27;2.90;;;;;;;;;;5092388;28;20027;-71
2022/06/14 08:34:22;;;;;;;8.80;3.30;;;;;;;;;;5089014;28;20024;-71
2022/06/14 08:37:13;;;;;;;4.20;2.60;;;;;;;;;;5087155;28;20506;-71
2022/06/14 08:39:46;;;;;;;4.70;2.43;;;;;;;;;;5087023;28;20081;-70
2022/06/14 08:42:28;;;;;;;6.93;2.33;;;;;;;;;;5086792;28;20107;-71
2022/06/14 08:44:59;;;;;;;6.27;2.40;;;;;;;;;;5091188;28;20044;-71
2022/06/14 08:47:38;;;;;;;6.00;2.00;;;;;;;;;;5092332;28;20471;-71
2022/06/14 08:50:09;;;;;;;6.13;2.80;;;;;;;;;;5096109;28;20381;-70
2022/06/14 08:52:44;;;;;;;4.67;2.13;;;;;;;;;;5099078;28;20023;-70
2022/06/14 08:55:37;;;;;;;7.13;2.03;;;;;;;;;;5098249;28;20040;-71
2022/06/14 08:58:11;;;;;;;9.30;3.13;;;;;;;;;;5093524;28;20027;-71
2022/06/14 09:00:47;;;;;;;4.72;2.00;;;;;;;;;;5093715;28;20016;-70
2022/06/14 09:03:14;;;;;;;4.47;2.10;;;;;;;;;;5092941;28;20020;-71
2022/06/14 09:05:53;;;;;;;4.63;1.90;;;;;;;;;;5094900;28;20020;-71
2022/06/14 09:08:36;;;;;;;3.20;1.90;;;;;;;;;;5099102;28;20028;-70
2022/06/14 09:11:21;;;;;;;5.13;2.37;;;;;;;;;;5098124;28;20383;-70
2022/06/14 09:13:59;;;;;;;7.38;2.38;;;;;;;;;;5098805;28;20150;-71
2022/06/14 09:16:32;;;;;;;4.77;2.07;;;;;;;;;;5098785;28;20020;-70
2022/06/14 09:19:05;;;;;;;7.87;2.27;;;;;;;;;;5094882;28;20032;-70
2022/06/14 09:21:49;;;;;;;9.13;2.57;;;;;;;;;;5093575;28;20016;-71
2022/06/14 09:24:22;;;;;;;9.40;2.47;;;;;;;;;;5093166;28;20450;-70
2022/06/14 09:26:52;;;;;;;7.17;2.33;;;;;;;;;;5093349;28;20027;-70
2022/06/14 09:29:34;;;;;;;7.27;2.10;;;;;;;;;;5097230;28;20020;-71
2022/06/14 09:32:19;;;;;;;6.90;2.50;;;;;;;;;;5098344;28;20051;-70
2022/06/14 09:35:01;;;;;;;5.93;2.00;;;;;;;;;;5098721;28;20367;-70
2022/06/14 09:37:43;;;;;;;3.90;2.23;;;;;;;;;;5098620;28;20016;-70
2022/06/14 09:40:24;;;;;;;6.47;2.07;;;;;;;;;;5096992;28;20490;-71
2022/06/14 09:43:02;;;;;;;5.53;2.00;;;;;;;;;;5093268;28;20078;-70
2022/06/14 09:45:45;;;;;;;8.07;2.13;;;;;;;;;;5093082;28;20032;-70
2022/06/14 09:48:50;;;;;;;3.53;2.00;;;;;;;;;;5093224;28;20558;-70
2022/06/14 09:51:17;;;;;;;5.10;2.17;;;;;;;;;;5034276;28;20481;-70
2022/06/14 09:54:02;;;;;;;2.47;1.43;;;;;;;;;;5036281;28;20045;-70
2022/06/14 09:56:47;;;;;;;3.85;1.88;;;;;;;;;;5073809;28;20107;-70
2022/06/14 09:59:22;;;;;;;2.67;1.60;;;;;;;;;;5078311;28;20024;-70
2022/06/14 10:01:54;;;;;;;14.88;3.08;;;;;;;;;;5082968;28;20035;-71
2022/06/14 10:04:28;;;;;;;10.60;2.50;;;;;;;;;;5089713;28;20085;-70
2022/06/14 10:07:13;;;;;;;7.27;1.60;;;;;;;;;;5089687;28;20108;-71
2022/06/14 10:09:58;;;;;;;4.57;1.75;;;;;;;;;;5089842;28;20020;-71
2022/06/14 10:12:34;;;;;;;7.07;1.70;;;;;;;;;;5091039;28;20024;-70
2022/06/14 10:15:10;;;;;;;5.23;1.70;;;;;;;;;;5095033;28;20027;-70
2022/06/14 10:17:40;;;;;;;3.00;1.90;;;;;;;;;;5077290;28;20424;-70
2022/06/14 10:20:31;;;;;;;5.47;1.60;;;;;;;;;;5095025;28;20024;-70
2022/06/14 10:23:06;;;;;;;4.40;1.43;;;;;;;;;;5094636;28;20031;-70
2022/06/14 10:28:53;;;;;;;3.50;1.70;;;;;;;;;;5089521;28;20387;-71
2022/06/14 10:31:37;;;;;;;3.30;1.60;;;;;;;;;;5089259;28;20593;-70
2022/06/14 10:34:15;;;;;;;3.20;1.40;;;;;;;;;;5089311;28;20027;-71
2022/06/14 10:37:08;;;;;;;6.17;1.90;;;;;;;;;;5094660;28;20016;-71
2022/06/14 10:39:53;;;;;;;4.40;1.50;;;;;;;;;;5091440;28;20502;-70
2022/06/14 10:42:30;;;;;;;5.68;1.70;;;;;;;;;;5094496;28;20565;-70
2022/06/14 10:45:10;;;;;;;6.37;1.83;;;;;;;;;;5094386;28;20036;-70
2022/06/14 10:47:40;;;;;;;4.60;1.60;;;;;;;;;;5090938;28;20370;-70
2022/06/14 10:50:15;;;;;;;4.93;1.43;;;;;;;;;;5071161;28;20448;-71
2022/06/14 10:52:45;;;;;;;5.20;1.50;;;;;;;;;;5089059;28;20047;-71
2022/06/14 10:55:11;;;;;;;5.13;3.00;;;;;;;;;;5088676;28;20024;-70
2022/06/14 10:57:41;;;;;;;2.40;1.47;;;;;;;;;;5091652;28;20024;-70
2022/06/14 11:00:12;;;;;;;5.50;1.43;;;;;;;;;;5094235;28;20467;-70
2022/06/14 11:02:45;;;;;;;4.83;1.73;;;;;;;;;;5093749;28;20097;-71
2022/06/14 11:05:11;;;;;;;3.47;1.73;;;;;;;;;;5094050;28;20085;-70
2022/06/14 11:07:44;;;;;;;7.33;2.10;;;;;;;;;;5094167;28;20390;-70
2022/06/14 11:10:20;;;;;;;1.93;1.40;;;;;;;;;;5090104;28;20028;-71
2022/06/14 11:12:55;;;;;;;10.73;2.30;;;;;;;;;;5087652;28;20020;-71
2022/06/14 11:15:39;;;;;;;3.45;1.65;;;;;;;;;;5088540;28;20024;-70
2022/06/14 11:18:24;;;;;;;8.30;2.10;;;;;;;;;;5088268;28;20074;-70
2022/06/14 11:20:51;;;;;;;7.55;1.98;;;;;;;;;;5093514;28;20056;-70
2022/06/14 11:23:26;;;;;;;6.17;2.17;;;;;;;;;;5093651;28;20471;-70
2022/06/14 11:26:02;;;;;;;4.90;2.57;;;;;;;;;;5093055;28;20035;-70
2022/06/14 11:28:38;;;;;;;5.63;3.50;;;;;;;;;;5093599;28;20123;-71
2022/06/14 11:31:05;;;;;;;4.33;1.90;;;;;;;;;;5092665;28;20031;-71
2022/06/14 11:33:49;;;;;;;8.30;2.30;;;;;;;;;;5088088;28;20367;-70
2022/06/14 11:36:35;;;;;;;6.43;2.08;;;;;;;;;;5088162;28;20016;-71
2022/06/14 11:39:06;;;;;;;3.53;1.80;;;;;;;;;;5088112;28;20028;-71
2022/06/14 11:41:37;;;;;;;4.03;1.73;;;;;;;;;;5089645;28;20380;-70
2022/06/14 11:44:21;;;;;;;5.33;1.87;;;;;;;;;;5093138;28;20064;-71
2022/06/14 11:47:11;;;;;;;2.37;1.20;;;;;;;;;;5092747;28;20024;-70
2022/06/14 11:49:46;;;;;;;6.33;2.53;;;;;;;;;;5093260;28;20141;-70
2022/06/14 11:52:27;;;;;;;3.97;1.40;;;;;;;;;;5093157;28;20063;-71
2022/06/14 11:55:03;;;;;;;2.63;1.30;;;;;;;;;;5088729;28;20030;-71
2022/06/14 11:57:48;;;;;;;3.90;1.67;;;;;;;;;;5087811;28;20016;-70
2022/06/14 12:00:23;;;;;;;4.25;1.73;;;;;;;;;;5087831;28;20052;-70
2022/06/14 12:03:07;;;;;;;5.03;2.08;;;;;;;;;;5087729;28;20058;-70
2022/06/14 12:05:45;;;;;;;3.10;1.33;;;;;;;;;;5093029;28;20107;-71
2022/06/14 12:08:35;;;;;;;4.70;1.80;;;;;;;;;;5092879;28;20503;-71
2022/06/14 12:11:17;;;;;;;2.80;1.27;;;;;;;;;;5064560;28;20103;-70
2022/06/14 12:13:49;;;;;;;4.70;1.63;;;;;;;;;;5092766;28;20445;-70
2022/06/14 12:16:20;;;;;;;2.87;1.50;;;;;;;;;;5089926;28;20028;-71
2022/06/14 12:19:01;;;;;;;3.50;1.40;;;;;;;;;;5086966;28;20032;-71
2022/06/14 12:21:28;;;;;;;3.47;1.50;;;;;;;;;;5087063;28;20493;-70
2022/06/14 12:23:58;;;;;;;3.80;1.67;;;;;;;;;;5086555;28;20046;-70
2022/06/14 12:26:34;;;;;;;3.27;1.80;;;;;;;;;;5089648;28;20040;-71
2022/06/14 12:29:22;;;;;;;5.83;1.90;;;;;;;;;;5092585;28;20016;-71
2022/06/14 12:31:51;;;;;;;3.90;1.43;;;;;;;;;;5092290;28;20487;-71
2022/06/14 12:34:21;;;;;;;8.13;1.67;;;;;;;;;;5092554;28;20012;-71
2022/06/14 12:36:59;;;;;;;5.00;1.63;;;;;;;;;;5091844;28;20021;-71
2022/06/14 12:39:32;;;;;;;9.00;2.30;;;;;;;;;;5087925;28;20027;-71
2022/06/14 12:42:11;;;;;;;5.57;1.87;;;;;;;;;;5087057;28;20092;-70
2022/06/14 12:44:59;;;;;;;3.57;2.03;;;;;;;;;;5086445;28;20036;-70
2022/06/14 12:47:28;;;;;;;5.40;2.00;;;;;;;;;;5086851;28;20042;-71
2022/06/14 12:49:57;;;;;;;3.87;1.60;;;;;;;;;;5092088;28;20103;-71
2022/06/14 12:52:31;;;;;;;4.23;1.63;;;;;;;;;;5092358;28;20112;-70
2022/06/14 12:55:13;;;;;;;6.10;1.90;;;;;;;;;;5091860;28;20035;-71
2022/06/14 12:57:43;;;;;;;6.90;2.50;;;;;;;;;;5092314;28;20129;-70
2022/06/14 13:00:10;;;;;;;6.90;2.00;;;;;;;;;;5091001;28;20031;-71
2022/06/14 13:02:37;;;;;;;4.40;2.30;;;;;;;;;;5086965;28;20081;-70
2022/06/14 13:05:23;;;;;;;5.97;1.90;;;;;;;;;;5086431;28;20036;-71
2022/06/14 13:08:09;;;;;;;7.63;2.60;;;;;;;;;;5086801;28;20031;-71
2022/06/14 13:10:41;;;;;;;4.20;2.20;;;;;;;;;;5088298;28;20020;-70
2022/06/14 13:13:08;;;;;;;5.63;2.40;;;;;;;;;;5091904;28;20367;-71
2022/06/14 13:15:38;;;;;;;6.50;2.93;;;;;;;;;;5092114;28;20035;-71
2022/06/14 13:18:14;;;;;;;6.70;3.17;;;;;;;;;;5092312;28;20082;-71
2022/06/14 13:20:56;;;;;;;4.53;2.63;;;;;;;;;;5092018;28;20474;-71
2022/06/14 13:23:32;;;;;;;7.77;2.40;;;;;;;;;;5088585;28;20047;-71
2022/06/14 13:25:59;;;;;;;3.60;2.13;;;;;;;;;;5086610;28;20032;-71
2022/06/14 13:28:34;;;;;;;4.80;2.00;;;;;;;;;;5086107;28;20076;-71
2022/06/14 13:31:04;;;;;;;5.43;2.20;;;;;;;;;;5086505;28;20024;-71
2022/06/14 13:33:43;;;;;;;6.33;2.27;;;;;;;;;;5089561;28;20095;-71
2022/06/14 13:36:10;;;;;;;5.70;2.10;;;;;;;;;;5093095;28;20021;-71
2022/06/14 13:38:40;;;;;;;4.43;2.23;;;;;;;;;;5095722;28;20051;-71
2022/06/14 13:41:25;;;;;;;7.23;2.03;;;;;;;;;;5095582;28;20053;-71
2022/06/14 13:43:55;;;;;;;3.60;1.83;;;;;;;;;;5095385;28;20392;-71
2022/06/14 13:46:43;;;;;;;6.57;2.00;;;;;;;;;;5090311;28;20028;-71
2022/06/14 13:49:31;;;;;;;8.03;2.70;;;;;;;;;;5090148;28;20027;-71
2022/06/14 13:52:04;;;;;;;5.57;2.17;;;;;;;;;;5090091;28;20020;-72
2022/06/14 13:54:42;;;;;;;6.97;2.23;;;;;;;;;;5090511;28;20017;-72
2022/06/14 13:57:12;;;;;;;7.10;2.10;;;;;;;;;;5095376;28;20028;-72
2022/06/14 13:59:41;;;;;;;3.97;2.07;;;;;;;;;;5095085;28;20059;-72
2022/06/14 14:02:14;;;;;;;5.83;2.30;;;;;;;;;;5094948;28;20093;-73
2022/06/14 14:04:48;;;;;;;4.90;2.50;;;;;;;;;;5094879;28;20063;-72
2022/06/14 14:07:29;;;;;;;8.60;2.83;;;;;;;;;;5093075;28;20051;-72
2022/06/14 14:09:59;;;;;;;6.90;3.07;;;;;;;;;;5089065;28;20028;-73
2022/06/14 14:12:29;;;;;;;5.87;2.40;;;;;;;;;;5089429;28;20024;-72
2022/06/14 14:15:02;;;;;;;10.77;2.70;;;;;;;;;;5089562;28;20028;-73
2022/06/14 14:17:29;;;;;;;7.13;2.47;;;;;;;;;;5091869;28;20016;-72
2022/06/14 14:19:58;;;;;;;3.93;2.00;;;;;;;;;;5094745;28;20524;-73
2022/06/14 14:22:34;;;;;;;6.37;2.30;;;;;;;;;;5094823;28;20023;-73
2022/06/14 14:25:10;;;;;;;6.50;2.97;;;;;;;;;;5094633;28;20107;-73
2022/06/14 14:27:49;;;;;;;4.53;2.60;;;;;;;;;;5094836;28;20020;-73
2022/06/14 14:30:38;;;;;;;9.03;3.20;;;;;;;;;;5090458;28;20356;-73
2022/06/14 14:33:11;;;;;;;6.20;2.97;;;;;;;;;;5089233;28;20028;-73
2022/06/14 14:35:40;;;;;;;7.63;3.17;;;;;;;;;;5089024;28;20303;-73
2022/06/14 14:38:10;;;;;;;9.93;3.20;;;;;;;;;;5088532;28;20530;-74
2022/06/14 14:40:40;;;;;;;10.17;4.87;;;;;;;;;;5093246;28;20081;-73
2022/06/14 14:43:20;;;;;;;7.93;3.73;;;;;;;;;;5094584;28;20023;-73
2022/06/14 14:46:02;;;;;;;12.37;3.87;;;;;;;;;;5094565;28;20161;-73
2022/06/14 14:48:46;;;;;;;11.40;3.90;;;;;;;;;;5093551;28;20367;-74
2022/06/14 14:51:26;;;;;;;13.10;4.40;;;;;;;;;;5093323;28;20031;-75
2022/06/14 14:54:02;;;;;;;11.93;5.17;;;;;;;;;;5088466;28;20017;-73
2022/06/14 14:56:29;;;;;;;20.50;4.60;;;;;;;;;;5088637;28;20106;-73
2022/06/14 14:59:01;;;;;;;10.30;3.87;;;;;;;;;;5088752;28;20112;-73
2022/06/14 15:07:39;;;;;;;12.47;4.23;;;;;;;;;;5093728;28;20043;-73
2022/06/14 15:10:09;;;;;;;11.50;3.93;;;;;;;;;;5093799;28;20048;-73
2022/06/14 15:12:49;;;;;;;17.53;4.03;;;;;;;;;;5093778;28;20016;-74
2022/06/14 15:15:35;;;;;;;8.90;2.97;;;;;;;;;;5088473;28;20024;-73
2022/06/14 15:20:53;;;;;;;9.67;2.87;;;;;;;;;;5088320;28;20035;-74
2022/06/14 15:23:31;;;;;;;12.17;3.10;;;;;;;;;;5088080;28;20324;-74
2022/06/14 15:26:01;;;;;;;13.83;3.77;;;;;;;;;;5093453;28;20374;-74
2022/06/14 15:28:51;;;;;;;5.27;2.57;;;;;;;;;;5093425;28;20016;-74
2022/06/14 15:31:26;;;;;;;7.10;2.23;;;;;;;;;;5093411;28;20059;-75
2022/06/14 15:33:57;;;;;;;10.13;2.37;;;;;;;;;;5093157;28;20024;-75
2022/06/14 15:36:37;;;;;;;8.17;2.90;;;;;;;;;;5090665;28;20024;-74